Terminal Aerodrome Forecast
Issued by NWS

Home | Current Version | Previous Version | Text Only | Print | Product List | Glossary On
Versions: 1 2 3 4 5 6 7 8 9 10 11 12 13 14 15 16 17 18
000
FTUS45 KRIW 250520
TAFJAC
TAF
KJAC 250520Z 2506/2606 VRB06KT P6SM -SHRA SCT015 BKN025
     FM250900 VRB03KT P6SM -SHRA VCFG SCT005 BKN015
     FM251200 19007KT P6SM -SHRA SCT005 BKN012
     FM251600 24012G18KT 6SM -SHRA VCTS SCT020CB BKN035
     FM260300 VRB06KT P6SM VCSH BKN035
      AMD LTD TO CLD VIS AND WIND=

USA.gov is the U.S. government's official web portal to all federal, state and local government web resources and services.